createdAt,value
2023-05-17T00:01:54.212Z,7.12
2023-05-17T00:04:24.082Z,7.12
2023-05-17T00:06:54.151Z,7.13
2023-05-17T00:09:23.883Z,7.13
2023-05-17T00:11:54.008Z,7.12
2023-05-17T00:14:25.407Z,7.19
2023-05-17T00:16:55.619Z,7.29
2023-05-17T00:19:25.561Z,7.33
2023-05-17T00:21:55.789Z,7.42
2023-05-17T00:24:25.599Z,7.46
2023-05-17T00:26:55.680Z,7.47
2023-05-17T00:29:27.014Z,7.53
2023-05-17T00:31:57.152Z,7.59
2023-05-17T00:34:26.959Z,7.57
2023-05-17T00:36:57.192Z,7.50
2023-05-17T00:39:26.934Z,7.51
2023-05-17T00:41:57.058Z,7.57
2023-05-17T00:44:28.428Z,7.59
2023-05-17T00:47:00.113Z,7.62
2023-05-17T00:49:30.168Z,7.64
2023-05-17T00:52:00.724Z,7.65
2023-05-17T00:54:30.632Z,7.54
2023-05-17T00:57:01.648Z,7.48
2023-05-17T00:59:33.246Z,7.55
2023-05-17T01:02:04.349Z,7.55
2023-05-17T01:04:34.165Z,7.58
2023-05-17T01:07:04.224Z,7.59
2023-05-17T01:09:34.170Z,7.50
2023-05-17T01:12:09.811Z,7.51
2023-05-17T01:14:49.872Z,7.49
2023-05-17T01:17:24.649Z,7.52
2023-05-17T01:19:59.482Z,7.48
2023-05-17T01:22:34.699Z,7.38
2023-05-17T01:25:13.979Z,7.41
2023-05-17T01:27:48.050Z,7.46
2023-05-17T01:30:21.342Z,7.54
2023-05-17T01:32:52.401Z,7.57
2023-05-17T01:35:22.260Z,7.54
2023-05-17T01:37:53.193Z,7.54
2023-05-17T01:40:25.277Z,7.54
2023-05-17T01:43:03.040Z,7.53
2023-05-17T01:45:36.049Z,7.55
2023-05-17T01:48:13.418Z,7.57
2023-05-17T01:50:43.681Z,7.56
2023-05-17T01:53:18.148Z,7.57
2023-05-17T01:55:51.452Z,7.56
2023-05-17T01:58:26.771Z,7.55
2023-05-17T02:00:59.760Z,7.56
2023-05-17T02:03:31.054Z,7.55
2023-05-17T02:06:00.949Z,7.54
2023-05-17T02:08:31.192Z,7.53
2023-05-17T02:11:01.060Z,7.52
2023-05-17T02:13:35.371Z,7.52
2023-05-17T02:16:05.593Z,7.53
2023-05-17T02:18:38.144Z,7.55
2023-05-17T02:21:09.452Z,7.53
2023-05-17T02:23:40.154Z,7.55
2023-05-17T02:26:09.970Z,7.57
2023-05-17T02:28:41.466Z,7.57
2023-05-17T02:31:11.264Z,7.57
2023-05-17T02:33:41.576Z,7.56
2023-05-17T02:36:11.419Z,7.52
2023-05-17T02:38:42.829Z,7.51
2023-05-17T02:41:12.632Z,7.49
2023-05-17T02:43:44.308Z,7.48
2023-05-17T02:46:14.156Z,7.46
2023-05-17T02:48:44.415Z,7.45
2023-05-17T02:51:14.641Z,7.43
2023-05-17T02:53:45.455Z,7.42
2023-05-17T02:56:15.332Z,7.43
2023-05-17T02:58:48.310Z,7.40
2023-05-17T03:01:18.806Z,7.41
2023-05-17T03:03:49.769Z,7.42
2023-05-17T03:06:21.694Z,7.44
2023-05-17T03:08:54.328Z,7.44
2023-05-17T03:11:24.890Z,7.48
2023-05-17T03:13:58.472Z,7.50
2023-05-17T03:16:30.517Z,7.50
2023-05-17T03:19:01.963Z,7.51
2023-05-17T03:21:31.950Z,7.54
2023-05-17T03:24:02.180Z,7.52
2023-05-17T03:26:32.551Z,7.54
2023-05-17T03:29:05.052Z,7.52
2023-05-17T03:31:35.577Z,7.49
2023-05-17T03:34:05.955Z,7.51
2023-05-17T03:36:36.564Z,7.51
2023-05-17T03:39:06.709Z,7.51
2023-05-17T03:41:37.214Z,7.48
2023-05-17T03:44:09.154Z,7.53
2023-05-17T03:46:39.790Z,7.57
2023-05-17T03:49:10.247Z,7.66
2023-05-17T03:51:40.792Z,7.69
2023-05-17T03:54:11.579Z,7.74
2023-05-17T03:56:43.960Z,7.80
2023-05-17T03:59:16.303Z,7.79
2023-05-17T04:01:46.139Z,7.85
2023-05-17T04:04:17.437Z,7.84
2023-05-17T04:06:47.395Z,7.91
2023-05-17T04:09:18.772Z,7.98
2023-05-17T04:11:48.537Z,8.03
2023-05-17T04:14:21.012Z,8.09
2023-05-17T04:16:50.780Z,8.14
2023-05-17T04:19:20.940Z,8.20
2023-05-17T04:21:52.434Z,8.23
2023-05-17T04:24:25.537Z,8.31
2023-05-17T04:26:56.094Z,8.50
2023-05-17T04:29:29.653Z,8.64
2023-05-17T04:31:59.716Z,8.68
2023-05-17T04:34:32.272Z,8.70
2023-05-17T04:37:04.024Z,8.72
2023-05-17T04:39:37.084Z,8.77
2023-05-17T04:42:06.974Z,8.62
2023-05-17T04:44:42.484Z,8.56
2023-05-17T04:47:13.446Z,8.60
2023-05-17T04:49:44.611Z,8.61
2023-05-17T04:52:14.530Z,8.68
2023-05-17T04:54:44.622Z,8.78
2023-05-17T04:57:15.394Z,8.64
2023-05-17T05:00:15.438Z,8.60
2023-05-17T05:02:48.393Z,8.46
2023-05-17T05:05:18.658Z,8.49
2023-05-17T05:07:49.578Z,8.37
2023-05-17T05:10:20.227Z,8.39
2023-05-17T05:12:50.626Z,8.43
2023-05-17T05:15:23.180Z,8.44
2023-05-17T05:17:58.301Z,8.47
2023-05-17T05:20:28.547Z,8.60
2023-05-17T05:23:01.338Z,8.74
2023-05-17T05:25:31.686Z,8.91
2023-05-17T05:28:01.758Z,9.05
2023-05-17T05:30:35.099Z,9.20
2023-05-17T05:33:05.109Z,9.30
2023-05-17T05:35:35.571Z,9.47
2023-05-17T05:38:06.167Z,9.64
2023-05-17T05:40:36.556Z,9.82
2023-05-17T05:43:06.612Z,9.81
2023-05-17T05:45:38.351Z,10.11
2023-05-17T05:48:09.354Z,10.07
2023-05-17T05:50:39.943Z,10.23
2023-05-17T05:53:19.041Z,10.33
2023-05-17T05:55:58.751Z,10.53
2023-05-17T05:58:28.783Z,10.79
2023-05-17T06:01:03.348Z,10.90
2023-05-17T06:03:34.552Z,10.62
2023-05-17T06:06:04.950Z,10.91
2023-05-17T06:08:34.774Z,10.85
2023-05-17T06:11:05.274Z,10.86
2023-05-17T06:13:34.982Z,11.02
2023-05-17T06:16:07.386Z,10.76
2023-05-17T06:18:37.271Z,10.79
2023-05-17T06:21:07.855Z,10.75
2023-05-17T06:23:37.746Z,10.72
2023-05-17T06:26:10.997Z,11.02
2023-05-17T06:28:40.775Z,11.26
2023-05-17T06:31:12.350Z,11.17
2023-05-17T06:33:42.174Z,11.31
2023-05-17T06:36:12.450Z,11.14
2023-05-17T06:38:42.312Z,11.40
2023-05-17T06:41:12.455Z,11.36
2023-05-17T06:43:42.495Z,11.55
2023-05-17T06:46:14.072Z,11.43
2023-05-17T06:48:44.156Z,11.61
2023-05-17T06:51:14.451Z,11.76
2023-05-17T06:53:44.192Z,11.75
2023-05-17T06:56:16.085Z,11.96
2023-05-17T06:58:46.070Z,12.05
2023-05-17T07:01:17.777Z,11.87
2023-05-17T07:03:47.847Z,11.46
2023-05-17T07:06:18.260Z,11.83
2023-05-17T07:08:48.109Z,12.40
2023-05-17T07:11:18.956Z,12.43
2023-05-17T07:13:51.125Z,12.77
2023-05-17T07:16:23.878Z,12.91
2023-05-17T07:18:53.745Z,12.52
2023-05-17T07:21:24.618Z,12.08
2023-05-17T07:23:54.400Z,11.78
2023-05-17T07:26:24.558Z,11.97
2023-05-17T07:28:54.481Z,11.79
2023-05-17T07:31:26.120Z,11.81
2023-05-17T07:33:56.357Z,11.88
2023-05-17T07:36:27.878Z,11.72
2023-05-17T07:38:57.953Z,11.60
2023-05-17T07:41:28.297Z,11.53
2023-05-17T07:43:58.015Z,11.31
2023-05-17T07:46:29.816Z,11.13
2023-05-17T07:49:00.128Z,10.97
2023-05-17T07:51:30.370Z,10.88
2023-05-17T07:54:00.305Z,11.08
2023-05-17T07:56:30.491Z,11.02
2023-05-17T07:59:00.204Z,11.06
2023-05-17T08:01:31.822Z,11.13
2023-05-17T08:04:01.668Z,11.00
2023-05-17T08:06:34.144Z,10.85
2023-05-17T08:09:04.753Z,10.85
2023-05-17T08:11:35.426Z,10.77
2023-05-17T08:14:05.902Z,10.76
2023-05-17T08:16:37.415Z,10.81
2023-05-17T08:19:07.531Z,10.81
2023-05-17T08:21:37.582Z,10.74
2023-05-17T08:24:08.916Z,10.65
2023-05-17T08:26:39.220Z,10.62
2023-05-17T08:29:09.442Z,10.79
2023-05-17T08:31:45.700Z,10.83
2023-05-17T08:34:15.626Z,11.51
2023-05-17T08:36:46.116Z,11.65
2023-05-17T08:39:16.599Z,12.26
2023-05-17T08:41:49.267Z,12.43
2023-05-17T08:44:19.803Z,12.88
2023-05-17T08:46:54.105Z,13.00
2023-05-17T08:49:26.165Z,12.79
2023-05-17T08:51:57.130Z,12.37
2023-05-17T08:54:26.998Z,12.42
2023-05-17T08:57:00.177Z,12.01
2023-05-17T08:59:34.156Z,11.78
2023-05-17T09:02:07.688Z,11.79
2023-05-17T09:04:37.969Z,11.75
2023-05-17T09:07:08.251Z,11.69
2023-05-17T09:09:38.058Z,11.57
2023-05-17T09:12:08.946Z,11.54
2023-05-17T09:14:38.868Z,11.50
2023-05-17T09:17:10.332Z,11.39
2023-05-17T09:19:45.412Z,11.25
2023-05-17T09:22:16.565Z,11.29
2023-05-17T09:24:47.080Z,11.33
2023-05-17T09:27:18.941Z,11.29
2023-05-17T09:29:50.300Z,11.27
2023-05-17T09:32:22.203Z,11.29
2023-05-17T09:34:52.099Z,11.22
2023-05-17T09:37:22.242Z,11.30
2023-05-17T09:39:52.256Z,11.57
2023-05-17T09:42:27.301Z,12.40
2023-05-17T09:45:00.351Z,12.32
2023-05-17T09:47:32.218Z,11.75
2023-05-17T09:50:03.980Z,11.44
2023-05-17T09:52:37.405Z,11.18
2023-05-17T09:55:07.874Z,11.09
2023-05-17T09:57:39.328Z,11.26
2023-05-17T10:00:12.398Z,11.68
2023-05-17T10:02:49.682Z,12.32
2023-05-17T10:05:20.009Z,12.40
2023-05-17T10:07:51.954Z,12.92
2023-05-17T10:10:22.405Z,13.28
2023-05-17T10:12:53.191Z,13.32
2023-05-17T10:15:23.004Z,13.24
2023-05-17T10:17:55.077Z,12.66
2023-05-17T10:20:25.053Z,12.33
2023-05-17T10:22:58.416Z,12.72
2023-05-17T10:25:28.948Z,12.98
2023-05-17T10:28:00.223Z,13.14
2023-05-17T10:30:30.509Z,13.43
2023-05-17T10:33:02.327Z,13.34
2023-05-17T10:35:33.580Z,12.93
2023-05-17T10:38:03.847Z,13.32
2023-05-17T10:40:34.225Z,13.55
2023-05-17T10:43:05.378Z,13.50
2023-05-17T10:45:35.512Z,13.43
2023-05-17T10:48:08.636Z,13.73
2023-05-17T10:50:47.384Z,13.63
2023-05-17T10:53:24.674Z,13.43
2023-05-17T10:55:54.418Z,13.32
2023-05-17T10:58:28.298Z,13.77
2023-05-17T11:00:58.174Z,13.51
2023-05-17T11:03:30.574Z,13.47
2023-05-17T11:06:24.889Z,13.69
2023-05-17T11:09:09.351Z,13.35
2023-05-17T11:11:39.405Z,13.16
2023-05-17T11:14:12.214Z,13.21
2023-05-17T11:16:41.950Z,13.32
2023-05-17T11:19:13.771Z,12.99
2023-05-17T11:21:50.356Z,12.97
2023-05-17T11:24:27.180Z,13.01
2023-05-17T11:27:00.593Z,13.14
2023-05-17T11:29:31.124Z,13.11
2023-05-17T11:32:01.110Z,13.02
2023-05-17T11:34:35.175Z,13.04
2023-05-17T11:37:06.445Z,13.05
2023-05-17T11:39:36.584Z,13.22
2023-05-17T11:42:06.725Z,13.04
2023-05-17T11:44:37.057Z,13.02
2023-05-17T11:47:09.117Z,13.23
2023-05-17T11:49:41.554Z,13.51
2023-05-17T11:52:11.527Z,13.47
2023-05-17T11:54:43.295Z,13.49
2023-05-17T11:57:14.964Z,13.57
2023-05-17T11:59:45.281Z,13.65
2023-05-17T12:02:27.870Z,13.98
2023-05-17T12:04:59.721Z,13.79
2023-05-17T12:07:29.964Z,13.67
2023-05-17T12:10:00.187Z,13.55
2023-05-17T12:12:30.043Z,13.80
2023-05-17T12:15:00.401Z,13.89
2023-05-17T12:17:33.089Z,13.97
2023-05-17T12:20:10.165Z,14.41
2023-05-17T12:22:53.342Z,14.32
2023-05-17T12:25:25.943Z,13.98
2023-05-17T12:27:56.703Z,14.16
2023-05-17T12:30:27.166Z,14.36
2023-05-17T12:32:57.168Z,14.35
2023-05-17T12:35:28.941Z,14.22
2023-05-17T12:37:58.877Z,14.09
2023-05-17T12:40:29.354Z,14.12
2023-05-17T12:43:03.377Z,14.05
2023-05-17T12:45:34.426Z,14.17
2023-05-17T12:48:04.442Z,13.77
2023-05-17T12:50:36.007Z,13.88
2023-05-17T12:53:09.671Z,13.56
2023-05-17T12:55:40.108Z,13.48
2023-05-17T12:58:09.926Z,13.48
2023-05-17T13:00:40.133Z,13.80
2023-05-17T13:03:12.011Z,13.48
2023-05-17T13:05:44.554Z,13.12
2023-05-17T13:08:21.010Z,13.15
2023-05-17T13:10:51.343Z,13.15
2023-05-17T13:13:21.529Z,12.94
2023-05-17T13:15:51.712Z,13.12
2023-05-17T13:18:22.720Z,13.50
2023-05-17T13:20:54.351Z,13.67
2023-05-17T13:23:30.886Z,13.38
2023-05-17T13:26:04.695Z,13.08
2023-05-17T13:28:36.434Z,13.16
2023-05-17T13:31:07.425Z,13.06
2023-05-17T13:33:38.559Z,13.16
2023-05-17T13:36:10.921Z,12.90
2023-05-17T13:38:47.189Z,13.13
2023-05-17T13:41:22.064Z,13.20
2023-05-17T13:43:52.392Z,12.93
2023-05-17T13:46:23.131Z,12.92
2023-05-17T13:48:53.860Z,13.14
2023-05-17T13:51:26.004Z,13.18
2023-05-17T13:53:56.284Z,13.06
2023-05-17T13:56:26.616Z,12.91
2023-05-17T13:58:57.439Z,12.95
2023-05-17T14:01:27.744Z,12.83
2023-05-17T14:03:57.738Z,12.96
2023-05-17T14:06:31.331Z,12.89
2023-05-17T14:09:04.924Z,12.68
2023-05-17T14:11:35.357Z,12.14
2023-05-17T14:14:05.366Z,12.51
2023-05-17T14:16:35.513Z,12.26
2023-05-17T14:19:05.345Z,11.93
2023-05-17T14:21:36.962Z,11.89
2023-05-17T14:24:07.143Z,11.90
2023-05-17T14:26:37.543Z,12.01
2023-05-17T14:29:07.472Z,11.94
2023-05-17T14:31:37.846Z,11.98
2023-05-17T14:34:07.861Z,11.86
2023-05-17T14:36:39.675Z,11.79
2023-05-17T14:39:10.420Z,12.01
2023-05-17T14:41:41.633Z,12.12
2023-05-17T14:44:12.788Z,12.05
2023-05-17T14:46:42.911Z,11.98
2023-05-17T14:49:12.659Z,11.83
2023-05-17T14:51:45.229Z,11.80
2023-05-17T14:54:14.976Z,11.47
2023-05-17T14:56:45.777Z,11.49
2023-05-17T14:59:15.601Z,11.16
2023-05-17T15:01:45.730Z,11.11
2023-05-17T15:04:15.438Z,10.92
2023-05-17T15:06:47.440Z,11.15
2023-05-17T15:09:18.636Z,11.15
2023-05-17T15:11:49.706Z,11.15
2023-05-17T15:14:22.522Z,11.10
2023-05-17T15:16:53.703Z,11.10
2023-05-17T15:19:23.669Z,10.96
2023-05-17T15:21:55.688Z,10.94
2023-05-17T15:24:25.464Z,10.87
2023-05-17T15:26:55.653Z,10.91
2023-05-17T15:29:25.467Z,10.75
2023-05-17T15:31:55.468Z,10.79
2023-05-17T15:34:26.755Z,10.63
2023-05-17T15:36:58.609Z,10.73
2023-05-17T15:39:29.169Z,10.56
2023-05-17T15:41:59.523Z,10.58
2023-05-17T15:44:29.282Z,10.62
2023-05-17T15:47:01.508Z,10.52
2023-05-17T15:49:33.889Z,10.55
2023-05-17T15:52:05.730Z,10.55
2023-05-17T15:54:35.470Z,10.46
2023-05-17T15:57:13.651Z,10.52
2023-05-17T15:59:58.499Z,10.54
2023-05-17T16:02:37.439Z,10.27
2023-05-17T16:05:10.610Z,10.17
2023-05-17T16:08:08.357Z,10.26
2023-05-17T16:10:39.115Z,10.25
2023-05-17T16:13:12.884Z,10.17
2023-05-17T16:15:46.052Z,10.13
2023-05-17T16:21:11.518Z,10.14
2023-05-17T16:23:48.120Z,10.18
2023-05-17T16:26:30.342Z,10.23
2023-05-17T16:29:04.260Z,10.12
2023-05-17T16:31:37.430Z,10.20
2023-05-17T16:34:08.907Z,10.16
2023-05-17T16:36:48.167Z,10.26
2023-05-17T16:39:34.261Z,10.08
2023-05-17T16:42:04.427Z,10.16
2023-05-17T16:44:47.132Z,10.02
2023-05-17T16:47:25.551Z,10.02
2023-05-17T16:49:57.329Z,9.85
2023-05-17T16:52:27.679Z,10.02
2023-05-17T16:55:09.329Z,9.79
2023-05-17T16:57:39.952Z,9.82
2023-05-17T17:00:16.551Z,9.83
2023-05-17T17:02:56.098Z,9.82
2023-05-17T17:05:26.871Z,9.77
2023-05-17T17:08:03.614Z,9.67
2023-05-17T17:10:57.008Z,9.76
2023-05-17T17:13:38.202Z,9.82
2023-05-17T17:16:09.483Z,9.72
2023-05-17T17:18:40.453Z,9.68
2023-05-17T17:21:15.148Z,9.58
2023-05-17T17:23:45.387Z,9.63
2023-05-17T17:26:17.408Z,9.66
2023-05-17T17:28:47.186Z,9.58
2023-05-17T17:31:18.700Z,9.60
2023-05-17T17:33:48.545Z,9.57
2023-05-17T17:36:19.080Z,9.57
2023-05-17T17:38:48.921Z,9.55
2023-05-17T17:41:20.543Z,9.46
2023-05-17T17:43:50.403Z,9.46
2023-05-17T17:46:20.749Z,9.48
2023-05-17T17:48:50.529Z,9.53
2023-05-17T17:51:21.495Z,9.41
2023-05-17T17:53:53.730Z,9.41
2023-05-17T17:56:26.114Z,9.33
2023-05-17T17:58:56.532Z,9.28
2023-05-17T18:01:26.722Z,9.30
2023-05-17T18:03:56.566Z,9.21
2023-05-17T18:06:26.797Z,9.19
2023-05-17T18:08:57.811Z,9.21
2023-05-17T18:11:29.860Z,9.16
2023-05-17T18:13:59.728Z,9.10
2023-05-17T18:16:30.948Z,9.11
2023-05-17T18:19:01.151Z,9.05
2023-05-17T18:21:31.628Z,8.94
2023-05-17T18:24:04.449Z,8.93
2023-05-17T18:26:39.624Z,8.99
2023-05-17T18:29:13.047Z,8.88
2023-05-17T18:31:44.993Z,8.83
2023-05-17T18:34:20.304Z,8.81
2023-05-17T18:36:53.480Z,8.77
2023-05-17T18:39:24.208Z,8.72
2023-05-17T18:41:57.189Z,8.66
2023-05-17T18:44:28.065Z,8.63
2023-05-17T18:46:58.825Z,8.58
2023-05-17T18:49:28.806Z,8.58
2023-05-17T18:51:59.031Z,8.55
2023-05-17T18:54:31.555Z,8.44
2023-05-17T18:57:06.499Z,8.39
2023-05-17T18:59:36.766Z,8.36
2023-05-17T19:02:07.046Z,8.31
2023-05-17T19:04:37.098Z,8.28
2023-05-17T19:07:07.613Z,8.26
2023-05-17T19:09:38.202Z,8.21
2023-05-17T19:12:10.195Z,8.13
2023-05-17T19:14:40.647Z,8.11
2023-05-17T19:17:11.093Z,8.06
2023-05-17T19:19:40.940Z,8.05
2023-05-17T19:22:11.291Z,8.00
2023-05-17T19:24:41.095Z,7.92
2023-05-17T19:27:17.122Z,7.93
2023-05-17T19:29:47.024Z,7.97
2023-05-17T19:32:17.760Z,7.90
2023-05-17T19:34:47.616Z,7.80
2023-05-17T19:37:17.819Z,7.75
2023-05-17T19:39:47.606Z,7.75
2023-05-17T19:42:19.429Z,7.65
2023-05-17T19:44:49.170Z,7.49
2023-05-17T19:47:19.319Z,7.52
2023-05-17T19:49:49.183Z,7.53
2023-05-17T19:52:19.386Z,7.47
2023-05-17T19:54:49.279Z,7.31
2023-05-17T19:57:20.882Z,7.27
2023-05-17T19:59:52.173Z,7.20
2023-05-17T20:02:22.572Z,7.18
2023-05-17T20:04:55.463Z,7.25
2023-05-17T20:07:26.721Z,7.30
2023-05-17T20:09:56.736Z,7.25
2023-05-17T20:12:28.593Z,7.29
2023-05-17T20:14:58.382Z,7.32
2023-05-17T20:17:28.549Z,7.33
2023-05-17T20:19:58.345Z,7.18
2023-05-17T20:22:29.287Z,6.93
2023-05-17T20:24:59.084Z,6.86
2023-05-17T20:27:30.638Z,6.78
2023-05-17T20:30:00.440Z,6.61
2023-05-17T20:32:30.475Z,6.60
2023-05-17T20:35:00.385Z,6.63
2023-05-17T20:37:30.434Z,6.65
2023-05-17T20:40:00.701Z,6.65
2023-05-17T20:42:32.790Z,6.65
2023-05-17T20:45:03.884Z,6.65
2023-05-17T20:47:34.115Z,6.59
2023-05-17T20:50:04.694Z,6.68
2023-05-17T20:52:39.574Z,6.63
2023-05-17T20:55:11.031Z,6.61
2023-05-17T20:57:42.570Z,6.59
2023-05-17T21:00:12.797Z,6.51
2023-05-17T21:02:42.990Z,6.51
2023-05-17T21:05:12.941Z,6.48
2023-05-17T21:07:43.098Z,6.41
2023-05-17T21:10:12.929Z,6.36
2023-05-17T21:12:44.476Z,6.22
2023-05-17T21:15:16.995Z,6.14
2023-05-17T21:17:47.668Z,6.16
2023-05-17T21:20:17.515Z,6.20
2023-05-17T21:22:47.722Z,6.18
2023-05-17T21:25:17.418Z,6.17
2023-05-17T21:27:49.254Z,6.17
2023-05-17T21:30:18.869Z,6.21
2023-05-17T21:32:49.067Z,6.17
2023-05-17T21:35:18.981Z,6.14
2023-05-17T21:37:49.043Z,6.11
2023-05-17T21:40:18.864Z,6.16
2023-05-17T21:42:50.661Z,6.16
2023-05-17T21:45:20.336Z,6.13
2023-05-17T21:47:50.411Z,6.14
2023-05-17T21:50:20.266Z,6.12
2023-05-17T21:52:50.258Z,6.10
2023-05-17T21:55:21.117Z,6.12
2023-05-17T21:57:52.861Z,6.04
2023-05-17T22:00:25.034Z,6.11
2023-05-17T22:02:55.224Z,6.04
2023-05-17T22:05:24.974Z,6.02
2023-05-17T22:07:55.220Z,5.96
2023-05-17T22:10:25.915Z,5.98
2023-05-17T22:12:58.381Z,5.98
2023-05-17T22:15:28.252Z,6.00
2023-05-17T22:17:58.390Z,5.91
2023-05-17T22:20:29.701Z,5.91
2023-05-17T22:23:00.138Z,5.95
2023-05-17T22:25:29.822Z,5.94
2023-05-17T22:28:01.492Z,5.90
2023-05-17T22:30:31.512Z,5.85
2023-05-17T22:33:03.441Z,5.83
2023-05-17T22:35:33.233Z,5.74
2023-05-17T22:38:03.764Z,5.71
2023-05-17T22:40:33.573Z,5.68
2023-05-17T22:43:08.561Z,5.62
2023-05-17T22:45:38.505Z,5.61
2023-05-17T22:48:08.947Z,5.55
2023-05-17T22:50:39.016Z,5.56
2023-05-17T22:53:11.373Z,5.57
2023-05-17T22:55:41.081Z,5.53
2023-05-17T22:58:12.628Z,5.52
2023-05-17T23:00:42.292Z,5.49
2023-05-17T23:03:12.899Z,5.47
2023-05-17T23:05:43.606Z,5.48
2023-05-17T23:08:15.802Z,5.50
2023-05-17T23:10:46.155Z,5.50
2023-05-17T23:13:18.207Z,5.48
2023-05-17T23:15:48.061Z,5.58
2023-05-17T23:18:18.513Z,5.55
2023-05-17T23:20:49.141Z,5.63
2023-05-17T23:23:19.661Z,5.58
2023-05-17T23:25:51.086Z,5.57
2023-05-17T23:28:23.306Z,5.62
2023-05-17T23:30:53.973Z,5.57
2023-05-17T23:33:24.286Z,5.62
2023-05-17T23:35:55.905Z,5.58
2023-05-17T23:38:26.003Z,5.54
2023-05-17T23:40:56.594Z,5.50
2023-05-17T23:43:28.305Z,5.48
2023-05-17T23:45:58.042Z,5.51
2023-05-17T23:48:28.822Z,5.44
2023-05-17T23:50:58.532Z,5.42
2023-05-17T23:53:28.690Z,5.48
2023-05-17T23:55:58.491Z,5.44
2023-05-17T23:58:30.009Z,5.38
